Labinsk, Russia
Current Conditions -  °F | °C
As of 2:00 PM on Wednesday 26 Nov 2014 (Local Time) from URMT Reporting Station
Haze Haze  
Wind Chill: 17°   Ceiling: 300
Heat Index: 28°   Visibility: 3mi
Dew Point: 28°   Wind: 16mph
Humidity: 100%   Direction: 120°ESE
Pressure: 30.09"   Gusts: 22mph
Location:  44.63°N, 40.74°E
Report Text: URMT 261100Z 12007G10MPS 5000 BR OVC003 M02/M02 Q1019 NOSIG RMKQBB100 QFE724 SC050
Loading
Personal Weather Stations






























Interactive Weather Map New forecast layout! Learn more

10-Day Weather Forecast

Advertisements
Track Severe Weather on mobile